Terminal Aerodrome Forecast
Issued by NWS Twin Cities, MN

Home | Current Version | Previous Version | Text Only | Print | Product List | Glossary Off
Versions: 1 2 3 4 5 6 7 8 9 10 11 12 13 14 15 16 17 18 19 20 21 22 23 24 25 26 27

240
FTUS43 KMPX 251920 AAA
TAFMSP
TAF AMD
KMSP 251920Z 2519/2624 15010KT P6SM BKN040 BKN250
     FM252030 15010KT P6SM VCSH OVC035
     FM252200 15007KT P6SM BKN040
     FM260000 14007KT P6SM SCT050 OVC090
     FM260600 14006KT P6SM SCT020 BKN050
     FM261400 15009KT P6SM VCSH SCT020 OVC050
     FM261800 18010KT P6SM SCT030 BKN050 PROB30 2618/2622 -TSRA
      BKN040CB
     FM262200 24010KT P6SM SCT050=

USA.gov is the U.S. government's official web portal to all federal, state and local government web resources and services.